South Kent, Connecticut
Current Conditions -  °F | °C
As of 6:50 PM on Sunday 23 Nov 2014 (Local Time) from KOXC Reporting Station
Overcast Overcast  
Wind Chill: 41°   Ceiling: 13000
Heat Index: 45°   Visibility: 10mi
Dew Point: 28°   Wind: 7mph
Humidity: 53%   Direction: 190°S
Pressure: 30.14"   Gusts: NA
Location:  41.7°N, 73.45°W
Report Text: KOXC 232350Z 19006KT 10SM OVC130 07/M02 A3014
Loading
Personal Weather Stations






























Interactive Weather Map New forecast layout! Learn more

10-Day Weather Forecast

Advertisements
Track Severe Weather on mobile